Check out our new BloomSky Weather System.

Active alerts

Galveston, TX
  Details for Galveston, TX Coastal Flood Advisory  +3 additional alerts
Fort Bend, TX
  Details for Fort Bend, TX Flash Flood Watch


Thunder radar  blitzortung!


Rain radar more information rain snow radar


Visit our other weather sites:

Template documentation
and downloads

And another site



Weather Underground History page Text

Daily Summary for March 18, 2017 Units:  English    Metric   Both
« Previous Day
Next Day »
Daily Weekly Monthly Yearly Custom
  High: Low: Average:
Temperature: TemperatureF °F 59.7 °F 71.4 °F
Dew Point: DewpointF °F 59.0 °F 65 °F
Humidity: Humidity % 50 % 82 %
Wind Speed: WindSpeedMPH mph 0.0 mph 1.6 mph
Wind Gust: WindSpeedGustMPH mph - -
Wind:- - SSE
Pressure: PressureIn in 30.18 in -
Precipitation: 0.00 in    
Historical Graphs
 
 
Tabular Data for March 18, 2017
Time Temperature Dew Point Pressure Wind Wind Speed Wind Gust Humidity Rainfall Rate (Hourly)
TemperatureF °F DewpointF °F PressureIn in Calm     Humidity % HourlyPrecipIn in
00:02 66.7 °F 63.3 °F 30.21 in Calm   3.0 mph 89 % 0.00 in
00:07 66.4 °F 63.3 °F 30.21 in Calm   2.0 mph 90 % 0.00 in
00:12 66.4 °F 63.7 °F 30.21 in ESE 1.0 mph 2.0 mph 91 % 0.00 in
00:17 66.4 °F 63.7 °F 30.21 in SE 1.0 mph 2.0 mph 91 % 0.00 in
00:23 66.2 °F 63.5 °F 30.21 in Calm   2.0 mph 91 % 0.00 in
00:28 66.0 °F 63.3 °F 30.21 in ESE 1.0 mph 2.0 mph 91 % 0.00 in
00:33 66.0 °F 63.7 °F 30.21 in Calm   2.0 mph 92 % 0.00 in
00:38 66.0 °F 63.7 °F 30.21 in Calm   2.0 mph 92 % 0.00 in
00:43 65.8 °F 63.5 °F 30.21 in ESE 1.0 mph 2.0 mph 92 % 0.00 in
00:48 65.8 °F 63.5 °F 30.21 in Calm   2.0 mph 92 % 0.00 in
00:53 65.8 °F 63.5 °F 30.21 in ESE 1.0 mph 2.0 mph 92 % 0.00 in
00:58 65.7 °F 63.5 °F 30.21 in Calm   2.0 mph 93 % 0.00 in
01:03 65.7 °F 63.5 °F 30.21 in Calm   2.0 mph 93 % 0.00 in
01:08 65.5 °F 63.3 °F 30.21 in Calm   2.0 mph 93 % 0.00 in
01:13 65.1 °F 63.0 °F 30.21 in Calm   1.0 mph 93 % 0.00 in
01:18 64.9 °F 62.8 °F 30.21 in Calm   1.0 mph 93 % 0.00 in
01:23 64.9 °F 62.8 °F 30.20 in Calm   1.0 mph 93 % 0.00 in
01:28 64.8 °F 62.6 °F 30.21 in Calm   1.0 mph 93 % 0.00 in
01:38 64.2 °F 62.4 °F 30.21 in Calm   1.0 mph 94 % 0.00 in
01:43 64.0 °F 62.2 °F 30.21 in Calm   1.0 mph 94 % 0.00 in
01:48 63.9 °F 62.1 °F 30.21 in Calm     94 % 0.00 in
01:53 63.7 °F 61.9 °F 30.21 in Calm     94 % 0.00 in
01:58 63.5 °F 61.7 °F 30.21 in Calm     94 % 0.00 in
02:03 63.3 °F 61.5 °F 30.21 in Calm     94 % 0.00 in
02:08 63.3 °F 61.5 °F 30.21 in Calm     94 % 0.00 in
02:13 63.1 °F 61.3 °F 30.21 in Calm     94 % 0.00 in
02:18 63.0 °F 61.5 °F 30.21 in Calm     95 % 0.00 in
02:23 63.0 °F 61.5 °F 30.21 in Calm     95 % 0.00 in
02:28 63.0 °F 61.5 °F 30.21 in Calm   1.0 mph 95 % 0.00 in
02:33 62.8 °F 61.3 °F 30.21 in Calm   1.0 mph 95 % 0.00 in
02:38 62.8 °F 61.3 °F 30.21 in Calm   1.0 mph 95 % 0.00 in
02:43 62.4 °F 61.0 °F 30.21 in Calm     95 % 0.00 in
02:48 62.4 °F 61.3 °F 30.21 in Calm   1.0 mph 96 % 0.00 in
02:53 62.2 °F 61.2 °F 30.21 in Calm   1.0 mph 96 % 0.00 in
02:58 62.1 °F 61.0 °F 30.21 in Calm   1.0 mph 96 % 0.00 in
03:03 62.1 °F 61.0 °F 30.22 in Calm     96 % 0.00 in
03:08 61.9 °F 60.8 °F 30.22 in Calm   1.0 mph 96 % 0.00 in
03:13 61.9 °F 60.8 °F 30.21 in Calm   1.0 mph 96 % 0.00 in
03:18 61.7 °F 60.6 °F 30.21 in Calm   1.0 mph 96 % 0.00 in
03:23 61.5 °F 60.4 °F 30.21 in Calm   1.0 mph 96 % 0.00 in
03:28 61.5 °F 60.4 °F 30.21 in Calm   1.0 mph 96 % 0.00 in
03:33 61.5 °F 60.6 °F 30.21 in Calm   1.0 mph 97 % 0.00 in
03:38 61.3 °F 60.4 °F 30.21 in Calm     97 % 0.00 in
03:43 61.3 °F 60.4 °F 30.21 in Calm   1.0 mph 97 % 0.00 in
03:48 61.3 °F 60.4 °F 30.21 in Calm   1.0 mph 97 % 0.00 in
03:53 61.3 °F 60.4 °F 30.21 in Calm   1.0 mph 97 % 0.00 in
03:58 61.2 °F 60.3 °F 30.21 in Calm     97 % 0.00 in
04:03 61.0 °F 60.1 °F 30.21 in Calm     97 % 0.00 in
04:08 60.8 °F 59.7 °F 30.21 in Calm     96 % 0.00 in
04:13 60.6 °F 59.7 °F 30.21 in Calm     97 % 0.00 in
04:14 60.6 °F 59.7 °F 30.21 in Calm     97 % 0.00 in
04:19 60.8 °F 59.9 °F 30.21 in Calm     97 % 0.00 in
04:24 60.6 °F 59.7 °F 30.21 in Calm     97 % 0.00 in
04:29 60.4 °F 59.5 °F 30.22 in Calm     97 % 0.00 in
04:34 60.4 °F 59.5 °F 30.22 in Calm     97 % 0.00 in
04:39 60.4 °F 59.5 °F 30.22 in Calm   1.0 mph 97 % 0.00 in
04:44 60.3 °F 59.4 °F 30.22 in Calm   1.0 mph 97 % 0.00 in
04:49 60.1 °F 59.2 °F 30.22 in Calm   1.0 mph 97 % 0.00 in
04:54 60.3 °F 59.4 °F 30.22 in Calm     97 % 0.00 in
04:59 60.3 °F 59.4 °F 30.22 in Calm     97 % 0.00 in
05:04 60.3 °F 59.4 °F 30.22 in Calm     97 % 0.00 in
05:09 60.3 °F 59.4 °F 30.22 in Calm     97 % 0.00 in
05:14 60.1 °F 59.2 °F 30.23 in Calm     97 % 0.00 in
05:19 59.9 °F 59.0 °F 30.23 in Calm     97 % 0.00 in
05:24 59.9 °F 59.4 °F 30.23 in Calm     98 % 0.00 in
05:29 60.1 °F 59.5 °F 30.23 in Calm     98 % 0.00 in
05:34 59.9 °F 59.4 °F 30.23 in Calm     98 % 0.00 in
05:39 59.9 °F 59.0 °F 30.23 in Calm     97 % 0.00 in
05:44 59.7 °F 59.2 °F 30.23 in Calm     98 % 0.00 in
05:49 60.1 °F 59.5 °F 30.23 in Calm     98 % 0.00 in
05:54 60.1 °F 59.5 °F 30.23 in Calm     98 % 0.00 in
05:59 60.1 °F 59.5 °F 30.23 in Calm     98 % 0.00 in
06:04 60.3 °F 59.7 °F 30.24 in Calm     98 % 0.00 in
06:09 60.3 °F 59.7 °F 30.24 in Calm   1.0 mph 98 % 0.00 in
06:14 60.4 °F 59.9 °F 30.24 in Calm   1.0 mph 98 % 0.00 in
06:19 60.6 °F 60.1 °F 30.24 in Calm   1.0 mph 98 % 0.00 in
06:24 60.8 °F 60.3 °F 30.24 in Calm   1.0 mph 98 % 0.00 in
06:29 61.0 °F 60.4 °F 30.24 in Calm   1.0 mph 98 % 0.00 in
06:34 61.2 °F 60.6 °F 30.23 in SE 1.0 mph 1.0 mph 98 % 0.00 in
06:39 61.2 °F 60.6 °F 30.23 in ESE 1.0 mph 1.0 mph 98 % 0.00 in
06:44 61.2 °F 60.6 °F 30.23 in Calm   1.0 mph 98 % 0.00 in
06:49 61.2 °F 60.6 °F 30.24 in SE 1.0 mph 1.0 mph 98 % 0.00 in
06:54 61.0 °F 60.4 °F 30.24 in Calm   1.0 mph 98 % 0.00 in
06:59 60.8 °F 60.3 °F 30.24 in Calm   1.0 mph 98 % 0.00 in
07:04 60.6 °F 60.1 °F 30.25 in Calm   1.0 mph 98 % 0.00 in
07:09 60.6 °F 60.1 °F 30.25 in Calm   1.0 mph 98 % 0.00 in
07:14 60.6 °F 60.1 °F 30.25 in Calm   1.0 mph 98 % 0.00 in
07:19 60.6 °F 60.1 °F 30.25 in Calm   1.0 mph 98 % 0.00 in
07:24 60.8 °F 60.3 °F 30.25 in Calm   1.0 mph 98 % 0.00 in
07:29 61.0 °F 60.4 °F 30.25 in Calm   1.0 mph 98 % 0.00 in
07:34 61.2 °F 60.6 °F 30.26 in Calm   1.0 mph 98 % 0.00 in
07:39 61.2 °F 60.6 °F 30.26 in Calm   1.0 mph 98 % 0.00 in
07:44 61.3 °F 60.8 °F 30.27 in Calm   1.0 mph 98 % 0.00 in
07:49 61.5 °F 61.0 °F 30.27 in Calm   1.0 mph 98 % 0.00 in
07:54 61.5 °F 61.0 °F 30.27 in Calm   1.0 mph 98 % 0.00 in
07:59 61.9 °F 61.5 °F 30.27 in Calm   1.0 mph 99 % 0.00 in
08:04 62.1 °F 61.7 °F 30.27 in Calm   2.0 mph 99 % 0.00 in
08:09 62.1 °F 61.7 °F 30.27 in Calm   2.0 mph 99 % 0.00 in
08:14 62.2 °F 61.9 °F 30.27 in NE 2.0 mph 2.0 mph 99 % 0.00 in
08:19 62.2 °F 61.7 °F 30.27 in Calm   2.0 mph 98 % 0.00 in
08:24 62.2 °F 61.7 °F 30.27 in Calm   2.0 mph 98 % 0.00 in
08:25 62.2 °F 61.9 °F 30.27 in Calm   2.0 mph 99 % 0.00 in
08:30 62.4 °F 62.1 °F 30.27 in Calm   2.0 mph 99 % 0.00 in
08:35 62.4 °F 62.1 °F 30.27 in Calm   2.0 mph 99 % 0.00 in
08:45 63.0 °F 62.6 °F 30.27 in Calm   2.0 mph 99 % 0.00 in
08:50 63.1 °F 62.8 °F 30.28 in Calm   2.0 mph 99 % 0.00 in
08:55 63.3 °F 63.0 °F 30.28 in Calm   2.0 mph 99 % 0.00 in
09:00 63.5 °F 63.1 °F 30.28 in Calm   2.0 mph 99 % 0.00 in
09:05 63.9 °F 63.5 °F 30.29 in NNE 1.0 mph 2.0 mph 99 % 0.00 in
09:10 64.0 °F 63.7 °F 30.29 in Calm   2.0 mph 99 % 0.00 in
09:15 64.2 °F 63.9 °F 30.29 in Calm   2.0 mph 99 % 0.00 in
09:20 64.6 °F 64.2 °F 30.29 in North 1.0 mph 2.0 mph 99 % 0.00 in
09:25 64.8 °F 64.4 °F 30.29 in ENE 1.0 mph 2.0 mph 99 % 0.00 in
09:30 64.8 °F 64.4 °F 30.30 in Calm   2.0 mph 99 % 0.00 in
09:35 64.9 °F 64.6 °F 30.30 in Calm   2.0 mph 99 % 0.00 in
09:40 65.1 °F 64.8 °F 30.30 in NE 2.0 mph 2.0 mph 99 % 0.00 in
09:50 65.7 °F 65.3 °F 30.30 in Calm   3.0 mph 99 % 0.00 in
09:55 65.8 °F 65.5 °F 30.30 in ENE 1.0 mph 3.0 mph 99 % 0.00 in
10:00 66.0 °F 65.7 °F 30.30 in ESE 1.0 mph 3.0 mph 99 % 0.00 in
10:05 66.4 °F 66.0 °F 30.30 in Calm   3.0 mph 99 % 0.00 in
10:10 66.6 °F 66.2 °F 30.30 in ENE 1.0 mph 3.0 mph 99 % 0.00 in
10:15 66.7 °F 66.4 °F 30.30 in ESE 1.0 mph 3.0 mph 99 % 0.00 in
10:20 67.6 °F 67.3 °F 30.31 in East 4.0 mph 4.0 mph 99 % 0.00 in
10:25 67.5 °F 66.9 °F 30.31 in SE 1.0 mph 4.0 mph 98 % 0.00 in
10:30 68.0 °F 67.6 °F 30.31 in ENE 1.0 mph 4.0 mph 99 % 0.00 in
10:35 68.5 °F 68.2 °F 30.31 in Calm   4.0 mph 99 % 0.00 in
10:40 69.6 °F 69.3 °F 30.31 in NE 1.0 mph 3.0 mph 99 % 0.00 in
10:45 70.5 °F 70.2 °F 30.31 in SE 2.0 mph 3.0 mph 99 % 0.00 in
10:50 70.9 °F 70.3 °F 30.31 in SSE 2.0 mph 4.0 mph 98 % 0.00 in
10:55 71.1 °F 70.2 °F 30.31 in SE 2.0 mph 4.0 mph 97 % 0.00 in
11:00 71.1 °F 69.8 °F 30.31 in North 1.0 mph 4.0 mph 96 % 0.00 in
11:05 72.0 °F 70.7 °F 30.31 in North 3.0 mph 4.0 mph 96 % 0.00 in
11:10 72.7 °F 70.9 °F 30.31 in SE 4.0 mph 6.0 mph 94 % 0.00 in
11:15 73.2 °F 70.7 °F 30.31 in SSW 2.0 mph 6.0 mph 92 % 0.00 in
11:20 74.1 °F 71.1 °F 30.31 in WSW 2.0 mph 6.0 mph 90 % 0.00 in
11:25 75.0 °F 71.2 °F 30.31 in ESE 4.0 mph 6.0 mph 88 % 0.00 in
11:30 75.4 °F 70.2 °F 30.31 in SE 2.0 mph 6.0 mph 84 % 0.00 in
11:35 75.4 °F 69.8 °F 30.31 in Calm   5.0 mph 83 % 0.00 in
11:40 76.1 °F 70.2 °F 30.31 in WNW 2.0 mph 5.0 mph 82 % 0.00 in
11:45 76.8 °F 70.5 °F 30.30 in WNW 1.0 mph 3.0 mph 81 % 0.00 in
11:55 77.9 °F 70.2 °F 30.30 in ESE 5.0 mph 8.0 mph 77 % 0.00 in
12:00 78.1 °F 70.0 °F 30.30 in SSE 2.0 mph 8.0 mph 76 % 0.00 in
12:05 78.4 °F 70.7 °F 30.30 in SE 5.0 mph 7.0 mph 77 % 0.00 in
12:10 78.1 °F 69.1 °F 30.30 in SE 3.0 mph 7.0 mph 74 % 0.00 in
12:15 78.1 °F 70.0 °F 30.30 in ESE 3.0 mph 7.0 mph 76 % 0.00 in
12:20 78.6 °F 70.3 °F 30.30 in SW 2.0 mph 7.0 mph 76 % 0.00 in
12:25 79.5 °F 70.5 °F 30.29 in South 2.0 mph 5.0 mph 74 % 0.00 in
12:30 79.9 °F 68.7 °F 30.29 in SSW 6.0 mph 6.0 mph 69 % 0.00 in
12:35 80.2 °F 69.6 °F 30.30 in SE 4.0 mph 8.0 mph 70 % 0.00 in
12:40 80.1 °F 68.9 °F 30.29 in SSW 2.0 mph 8.0 mph 69 % 0.00 in
12:45 80.8 °F 68.7 °F 30.29 in Calm   8.0 mph 67 % 0.00 in
12:50 81.3 °F 68.4 °F 30.29 in SE 3.0 mph 6.0 mph 65 % 0.00 in
12:51 81.3 °F 68.4 °F 30.29 in ESE 2.0 mph 6.0 mph 65 % 0.00 in
12:56 81.7 °F 68.7 °F 30.28 in SE 2.0 mph 4.0 mph 65 % 0.00 in
13:01 82.2 °F 68.4 °F 30.28 in SSE 1.0 mph 4.0 mph 63 % 0.00 in
13:02 82.4 °F 68.5 °F 30.28 in SSW 3.0 mph 4.0 mph 63 % 0.00 in
13:07 81.7 °F 67.8 °F 30.28 in SSE 3.0 mph 6.0 mph 63 % 0.00 in
13:12 81.1 °F 66.9 °F 30.28 in SW 3.0 mph 6.0 mph 62 % 0.00 in
13:17 81.0 °F 67.1 °F 30.28 in SW 2.0 mph 7.0 mph 63 % 0.00 in
13:22 81.3 °F 68.0 °F 30.27 in SW 2.0 mph 7.0 mph 64 % 0.00 in
13:28 82.2 °F 68.4 °F 30.27 in South 4.0 mph 7.0 mph 63 % 0.00 in
13:33 82.8 °F 68.0 °F 30.27 in Calm   6.0 mph 61 % 0.00 in
13:38 82.9 °F 67.6 °F 30.27 in Calm   7.0 mph 60 % 0.00 in
13:43 83.5 °F 68.2 °F 30.26 in Calm   7.0 mph 60 % 0.00 in
13:48 83.7 °F 65.8 °F 30.26 in South 5.0 mph 7.0 mph 55 % 0.00 in
13:53 83.7 °F 66.7 °F 30.26 in Calm   7.0 mph 57 % 0.00 in
13:58 84.2 °F 67.3 °F 30.25 in North 2.0 mph 7.0 mph 57 % 0.00 in
14:03 84.6 °F 66.6 °F 30.25 in ESE 6.0 mph 6.0 mph 55 % 0.00 in
14:08 83.8 °F 66.4 °F 30.25 in WSW 2.0 mph 7.0 mph 56 % 0.00 in
14:13 83.7 °F 66.7 °F 30.25 in ESE 1.0 mph 7.0 mph 57 % 0.00 in
14:18 83.5 °F 68.2 °F 30.25 in ESE 2.0 mph 7.0 mph 60 % 0.00 in
14:23 84.0 °F 69.1 °F 30.24 in SSE 2.0 mph 7.0 mph 61 % 0.00 in
14:28 84.0 °F 66.6 °F 30.24 in SW 1.0 mph 5.0 mph 56 % 0.00 in
14:33 84.0 °F 68.2 °F 30.24 in WSW 2.0 mph 5.0 mph 59 % 0.00 in
14:38 83.1 °F 67.8 °F 30.24 in West 2.0 mph 5.0 mph 60 % 0.00 in
14:43 82.6 °F 66.7 °F 30.23 in West 2.0 mph 5.0 mph 59 % 0.00 in
14:48 82.2 °F 67.8 °F 30.23 in NE 1.0 mph 5.0 mph 62 % 0.00 in
14:53 82.0 °F 67.3 °F 30.22 in SE 3.0 mph 4.0 mph 61 % 0.00 in
14:58 82.0 °F 68.7 °F 30.22 in East 2.0 mph 5.0 mph 64 % 0.00 in
15:03 82.6 °F 67.3 °F 30.22 in Calm   5.0 mph 60 % 0.00 in
15:08 82.9 °F 68.5 °F 30.22 in WSW 3.0 mph 8.0 mph 62 % 0.00 in
15:14 83.7 °F 67.8 °F 30.22 in WSW 3.0 mph 8.0 mph 59 % 0.00 in
15:19 84.0 °F 68.2 °F 30.21 in NW 3.0 mph 8.0 mph 59 % 0.00 in
15:24 83.7 °F 66.7 °F 30.21 in SW 2.0 mph 6.0 mph 57 % 0.00 in
15:29 83.7 °F 67.8 °F 30.21 in SSE 1.0 mph 6.0 mph 59 % 0.00 in
15:34 84.0 °F 66.6 °F 30.21 in SSW 4.0 mph 6.0 mph 56 % 0.00 in
15:39 84.4 °F 66.4 °F 30.21 in SSW 4.0 mph 7.0 mph 55 % 0.00 in
15:44 83.7 °F 65.8 °F 30.20 in SE 2.0 mph 7.0 mph 55 % 0.00 in
15:49 84.0 °F 66.2 °F 30.20 in Calm   7.0 mph 55 % 0.00 in
15:54 84.9 °F 66.4 °F 30.20 in SSW 3.0 mph 7.0 mph 54 % 0.00 in
15:59 85.3 °F 66.7 °F 30.20 in West 2.0 mph 7.0 mph 54 % 0.00 in
16:04 85.3 °F 66.2 °F 30.20 in SSE 1.0 mph 7.0 mph 53 % 0.00 in
16:09 84.4 °F 64.2 °F 30.20 in South 3.0 mph 9.0 mph 51 % 0.00 in
16:14 83.8 °F 66.0 °F 30.20 in South 4.0 mph 9.0 mph 55 % 0.00 in
16:19 84.2 °F 66.2 °F 30.20 in Calm   9.0 mph 55 % 0.00 in
16:24 84.6 °F 67.1 °F 30.20 in SW 3.0 mph 6.0 mph 56 % 0.00 in
16:29 84.7 °F 66.2 °F 30.19 in South 2.0 mph 9.0 mph 54 % 0.00 in
16:34 84.6 °F 66.0 °F 30.19 in SW 2.0 mph 9.0 mph 54 % 0.00 in
16:39 84.7 °F 65.1 °F 30.19 in SSW 1.0 mph 9.0 mph 52 % 0.00 in
16:44 85.5 °F 66.4 °F 30.19 in South 2.0 mph 7.0 mph 53 % 0.00 in
16:49 85.5 °F 64.8 °F 30.19 in SE 3.0 mph 7.0 mph 50 % 0.00 in
16:54 84.9 °F 64.2 °F 30.19 in SSE 2.0 mph 9.0 mph 50 % 0.00 in
16:59 84.7 °F 64.6 °F 30.19 in SSE 3.0 mph 9.0 mph 51 % 0.00 in
17:04 84.2 °F 64.0 °F 30.19 in SE 1.0 mph 9.0 mph 51 % 0.00 in
17:09 84.4 °F 66.4 °F 30.19 in ESE 2.0 mph 7.0 mph 55 % 0.00 in
17:14 84.6 °F 64.4 °F 30.19 in SW 2.0 mph 6.0 mph 51 % 0.00 in
17:19 84.7 °F 65.1 °F 30.19 in SSE 3.0 mph 7.0 mph 52 % 0.00 in
17:24 84.7 °F 64.0 °F 30.18 in Calm   7.0 mph 50 % 0.00 in
17:29 84.6 °F 63.9 °F 30.18 in SE 4.0 mph 7.0 mph 50 % 0.00 in
17:34 83.7 °F 67.8 °F 30.19 in East 4.0 mph 6.0 mph 59 % 0.00 in
17:39 82.6 °F 68.7 °F 30.18 in SSE 6.0 mph 12.0 mph 63 % 0.00 in
17:44 82.2 °F 68.4 °F 30.18 in SE 4.0 mph 13.0 mph 63 % 0.00 in
17:49 81.7 °F 68.7 °F 30.18 in SE 5.0 mph 13.0 mph 65 % 0.00 in
17:54 81.3 °F 68.9 °F 30.18 in SE 4.0 mph 13.0 mph 66 % 0.00 in
17:59 81.1 °F 69.1 °F 30.18 in SSE 4.0 mph 13.0 mph 67 % 0.00 in
18:04 81.3 °F 69.3 °F 30.19 in ESE 4.0 mph 13.0 mph 67 % 0.00 in
18:09 81.1 °F 69.1 °F 30.19 in SE 5.0 mph 10.0 mph 67 % 0.00 in
18:19 80.8 °F 69.3 °F 30.19 in SE 5.0 mph 9.0 mph 68 % 0.00 in
18:24 80.8 °F 69.3 °F 30.19 in ESE 6.0 mph 9.0 mph 68 % 0.00 in
18:29 80.4 °F 69.3 °F 30.19 in SSE 7.0 mph 9.0 mph 69 % 0.00 in
18:34 79.9 °F 68.7 °F 30.19 in ESE 8.0 mph 10.0 mph 69 % 0.00 in
18:39 79.5 °F 68.9 °F 30.19 in East 6.0 mph 11.0 mph 70 % 0.00 in
18:44 79.3 °F 69.1 °F 30.19 in SSE 2.0 mph 11.0 mph 71 % 0.00 in
18:49 79.2 °F 68.9 °F 30.19 in East 4.0 mph 11.0 mph 71 % 0.00 in
18:54 79.0 °F 68.7 °F 30.19 in SSE 4.0 mph 8.0 mph 71 % 0.00 in
18:59 78.6 °F 68.9 °F 30.19 in ESE 5.0 mph 7.0 mph 72 % 0.00 in
19:04 78.4 °F 68.7 °F 30.20 in ESE 5.0 mph 7.0 mph 72 % 0.00 in
19:09 78.3 °F 68.9 °F 30.20 in SE 4.0 mph 7.0 mph 73 % 0.00 in
19:14 78.1 °F 68.7 °F 30.20 in ESE 2.0 mph 9.0 mph 73 % 0.00 in
19:19 77.9 °F 68.9 °F 30.20 in ESE 3.0 mph 9.0 mph 74 % 0.00 in
19:24 77.9 °F 68.9 °F 30.20 in SSE 3.0 mph 9.0 mph 74 % 0.00 in
19:29 77.9 °F 68.9 °F 30.20 in SSE 6.0 mph 7.0 mph 74 % 0.00 in
19:34 78.1 °F 69.1 °F 30.20 in SSE 2.0 mph 9.0 mph 74 % 0.00 in
19:39 77.7 °F 69.1 °F 30.20 in SSE 5.0 mph 9.0 mph 75 % 0.00 in
19:44 77.7 °F 69.1 °F 30.20 in SE 4.0 mph 9.0 mph 75 % 0.00 in
19:49 77.4 °F 69.3 °F 30.20 in SSW 3.0 mph 9.0 mph 76 % 0.00 in
19:54 77.4 °F 69.3 °F 30.20 in SSW 3.0 mph 10.0 mph 76 % 0.00 in
19:59 77.2 °F 69.1 °F 30.20 in SSE 2.0 mph 10.0 mph 76 % 0.00 in
20:04 77.2 °F 69.1 °F 30.20 in SE 6.0 mph 10.0 mph 76 % 0.00 in
20:09 77.0 °F 68.9 °F 30.20 in South 5.0 mph 10.0 mph 76 % 0.00 in
20:15 76.8 °F 68.7 °F 30.20 in SE 3.0 mph 10.0 mph 76 % 0.00 in
20:20 76.8 °F 68.7 °F 30.20 in ESE 3.0 mph 8.0 mph 76 % 0.00 in
20:25 76.6 °F 68.5 °F 30.20 in ESE 3.0 mph 8.0 mph 76 % 0.00 in
20:30 76.5 °F 68.7 °F 30.21 in SSW 3.0 mph 8.0 mph 77 % 0.00 in
20:35 76.3 °F 68.5 °F 30.21 in ESE 3.0 mph 6.0 mph 77 % 0.00 in
20:40 76.1 °F 68.4 °F 30.21 in ESE 2.0 mph 6.0 mph 77 % 0.00 in
20:45 75.9 °F 68.5 °F 30.21 in ESE 2.0 mph 6.0 mph 78 % 0.00 in
20:50 75.7 °F 68.4 °F 30.21 in ESE 2.0 mph 6.0 mph 78 % 0.00 in
20:55 75.7 °F 68.4 °F 30.21 in ESE 5.0 mph 7.0 mph 78 % 0.00 in
21:00 75.7 °F 68.4 °F 30.21 in South 3.0 mph 8.0 mph 78 % 0.00 in
21:05 75.6 °F 68.2 °F 30.21 in SE 3.0 mph 8.0 mph 78 % 0.00 in
21:10 75.4 °F 68.4 °F 30.21 in SSE 4.0 mph 7.0 mph 79 % 0.00 in
21:15 75.2 °F 68.2 °F 30.22 in SSE 4.0 mph 6.0 mph 79 % 0.00 in
21:20 75.0 °F 68.0 °F 30.22 in SE 2.0 mph 7.0 mph 79 % 0.00 in
21:25 74.8 °F 68.2 °F 30.22 in SSE 3.0 mph 7.0 mph 80 % 0.00 in
21:30 74.7 °F 68.0 °F 30.22 in South 3.0 mph 7.0 mph 80 % 0.00 in
21:35 74.5 °F 67.8 °F 30.22 in SW 5.0 mph 7.0 mph 80 % 0.00 in
21:40 74.5 °F 67.8 °F 30.22 in SSW 2.0 mph 7.0 mph 80 % 0.00 in
21:45 74.1 °F 67.6 °F 30.22 in SSE 6.0 mph 7.0 mph 80 % 0.00 in
21:50 74.1 °F 68.0 °F 30.23 in SSE 4.0 mph 7.0 mph 81 % 0.00 in
21:55 73.9 °F 67.8 °F 30.23 in South 5.0 mph 7.0 mph 81 % 0.00 in
22:00 73.9 °F 67.8 °F 30.23 in South 3.0 mph 7.0 mph 81 % 0.00 in
22:05 73.9 °F 67.8 °F 30.23 in South 4.0 mph 6.0 mph 81 % 0.00 in
22:10 73.8 °F 67.6 °F 30.23 in South 3.0 mph 6.0 mph 81 % 0.00 in
22:15 73.8 °F 68.0 °F 30.23 in SE 3.0 mph 7.0 mph 82 % 0.00 in
22:20 73.6 °F 67.8 °F 30.23 in SSE 3.0 mph 7.0 mph 82 % 0.00 in
22:25 73.6 °F 67.8 °F 30.23 in South 3.0 mph 7.0 mph 82 % 0.00 in
22:30 73.4 °F 67.6 °F 30.24 in SSW 2.0 mph 7.0 mph 82 % 0.00 in
22:35 73.2 °F 67.8 °F 30.24 in South 2.0 mph 6.0 mph 83 % 0.00 in
22:40 73.0 °F 67.6 °F 30.24 in South 2.0 mph 5.0 mph 83 % 0.00 in
22:45 72.9 °F 67.5 °F 30.24 in SSE 6.0 mph 6.0 mph 83 % 0.00 in
22:50 72.9 °F 67.8 °F 30.24 in SSW 2.0 mph 6.0 mph 84 % 0.00 in
22:55 72.7 °F 67.6 °F 30.24 in SSW 3.0 mph 6.0 mph 84 % 0.00 in
23:00 72.3 °F 67.3 °F 30.24 in South 4.0 mph 7.0 mph 84 % 0.00 in
23:05 72.1 °F 67.5 °F 30.24 in SE 2.0 mph 7.0 mph 85 % 0.00 in
23:10 72.0 °F 67.3 °F 30.24 in SW 1.0 mph 7.0 mph 85 % 0.00 in
23:15 71.8 °F 67.1 °F 30.24 in South 1.0 mph 4.0 mph 85 % 0.00 in
23:20 71.4 °F 67.1 °F 30.24 in South 1.0 mph 4.0 mph 86 % 0.00 in
23:25 71.2 °F 67.1 °F 30.24 in SSE 1.0 mph 3.0 mph 87 % 0.00 in
23:30 71.2 °F 67.1 °F 30.24 in South 1.0 mph 3.0 mph 87 % 0.00 in
23:35 71.1 °F 66.9 °F 30.24 in South 1.0 mph 3.0 mph 87 % 0.00 in
23:45 70.9 °F 67.1 °F 30.24 in South 2.0 mph 4.0 mph 88 % 0.00 in
23:50 70.7 °F 66.9 °F 30.24 in ESE 1.0 mph 4.0 mph 88 % 0.00 in
23:55 70.7 °F 66.9 °F 30.24 in Calm   6.0 mph 88 % 0.00 in
Spring, Texas: Villages of Bridgestone
Compliments of Weather Underground - 3.25 mb

Script developed by  Jim McMurry - jmcmurry@mwt.net Adapted for the template by  Wim van der Kuil - Leuven-Template.eu

You find our weather info also at:

UK Metoffice

WeatherCloud

Weather Underground

Mid-South Weather Network

AWEKAS

Citizen Weather Observer Program (CWOP)

HAMweather, WeatherForYou, PWS Weather

Equipment we use:

Weather-station
Davis Vantage Vue

Weather-program
Meteohub

Weather-server
Debian 7.9 x86 (Guest)

Provider
DreamHost

Davis Vantage Vue

Meteohub

Debian 7.9 x86 (Guest)

DreamHost